createdAt,value
2022-07-28T00:01:16.479Z,99.90
2022-07-28T00:03:48.966Z,99.90
2022-07-28T00:06:17.391Z,99.90
2022-07-28T00:08:46.966Z,99.90
2022-07-28T00:11:15.338Z,99.90
2022-07-28T00:13:43.482Z,99.90
2022-07-28T00:16:11.678Z,99.90
2022-07-28T00:18:39.946Z,99.90
2022-07-28T00:21:08.254Z,99.90
2022-07-28T00:23:39.632Z,99.90
2022-07-28T00:26:11.903Z,99.90
2022-07-28T00:28:40.258Z,99.90
2022-07-28T00:31:09.902Z,99.90
2022-07-28T00:33:42.060Z,99.90
2022-07-28T00:36:11.705Z,99.90
2022-07-28T00:38:44.224Z,99.90
2022-07-28T00:41:14.788Z,99.90
2022-07-28T00:43:44.617Z,99.90
2022-07-28T00:46:13.817Z,99.90
2022-07-28T00:48:45.557Z,99.90
2022-07-28T00:51:16.356Z,99.90
2022-07-28T00:53:44.902Z,99.90
2022-07-28T00:56:15.193Z,99.90
2022-07-28T00:58:43.597Z,99.90
2022-07-28T01:01:15.865Z,99.90
2022-07-28T01:03:46.904Z,99.90
2022-07-28T01:06:23.914Z,99.90
2022-07-28T01:09:01.460Z,99.90
2022-07-28T01:11:43.024Z,99.90
2022-07-28T01:14:17.909Z,99.90
2022-07-28T01:16:53.685Z,99.90
2022-07-28T01:19:34.751Z,99.90
2022-07-28T01:22:04.550Z,99.90
2022-07-28T01:24:40.761Z,99.90
2022-07-28T01:27:16.061Z,99.90
2022-07-28T01:30:07.308Z,99.90
2022-07-28T01:32:42.953Z,99.90
2022-07-28T01:35:15.295Z,99.90
2022-07-28T01:37:47.225Z,99.90
2022-07-28T01:40:20.775Z,99.90
2022-07-28T01:42:53.013Z,99.90
2022-07-28T01:45:22.549Z,99.90
2022-07-28T01:47:55.374Z,99.90
2022-07-28T01:50:26.911Z,99.90
2022-07-28T01:52:56.720Z,99.90
2022-07-28T01:55:26.096Z,99.90
2022-07-28T01:57:56.904Z,99.90
2022-07-28T02:00:26.963Z,99.90
2022-07-28T02:02:59.619Z,99.90
2022-07-28T02:05:29.684Z,99.90
2022-07-28T02:08:00.613Z,99.90
2022-07-28T02:10:30.185Z,99.90
2022-07-28T02:13:01.219Z,99.90
2022-07-28T02:15:32.084Z,99.90
2022-07-28T02:18:03.256Z,99.90
2022-07-28T02:20:32.427Z,99.90
2022-07-28T02:23:00.526Z,99.90
2022-07-28T02:25:30.847Z,99.90
2022-07-28T02:28:03.021Z,99.90
2022-07-28T02:30:38.579Z,99.90
2022-07-28T02:33:14.685Z,99.90
2022-07-28T02:35:49.111Z,99.90
2022-07-28T02:38:22.373Z,99.90
2022-07-28T02:40:53.789Z,99.90
2022-07-28T02:43:45.803Z,99.90
2022-07-28T02:46:21.762Z,99.90
2022-07-28T02:48:56.140Z,99.90
2022-07-28T02:51:25.895Z,99.90
2022-07-28T02:53:55.026Z,99.90
2022-07-28T02:56:23.763Z,99.90
2022-07-28T02:58:53.814Z,99.90
2022-07-28T03:01:23.214Z,99.90
2022-07-28T03:03:55.320Z,99.90
2022-07-28T03:06:26.583Z,99.90
2022-07-28T03:08:57.453Z,99.90
2022-07-28T03:11:27.213Z,99.90
2022-07-28T03:13:55.481Z,99.90
2022-07-28T03:16:23.661Z,99.90
2022-07-28T03:18:53.198Z,99.90
2022-07-28T03:21:21.251Z,99.90
2022-07-28T03:23:52.582Z,99.90
2022-07-28T03:26:28.794Z,99.90
2022-07-28T03:28:58.985Z,99.90
2022-07-28T03:31:31.070Z,99.90
2022-07-28T03:34:00.746Z,99.90
2022-07-28T03:36:39.927Z,99.90
2022-07-28T03:39:11.967Z,99.90
2022-07-28T03:41:41.883Z,99.90
2022-07-28T03:44:11.939Z,99.90
2022-07-28T03:46:45.158Z,99.90
2022-07-28T03:49:14.770Z,99.90
2022-07-28T03:51:43.061Z,99.90
2022-07-28T03:54:11.491Z,99.90
2022-07-28T03:56:39.751Z,99.90
2022-07-28T03:59:07.796Z,99.90
2022-07-28T04:01:35.911Z,99.90
2022-07-28T04:04:04.078Z,99.90
2022-07-28T04:06:33.569Z,99.90
2022-07-28T04:09:01.634Z,99.90
2022-07-28T04:11:29.751Z,99.90
2022-07-28T04:13:59.060Z,99.90
2022-07-28T04:16:27.259Z,99.90
2022-07-28T04:18:55.372Z,99.90
2022-07-28T04:21:23.723Z,99.90
2022-07-28T04:23:56.200Z,99.90
2022-07-28T04:26:26.632Z,99.90
2022-07-28T04:28:54.718Z,99.90
2022-07-28T04:31:22.796Z,99.90
2022-07-28T04:33:51.013Z,99.90
2022-07-28T04:36:19.220Z,99.90
2022-07-28T04:38:47.406Z,99.90
2022-07-28T04:41:16.828Z,99.90
2022-07-28T04:43:45.428Z,99.90
2022-07-28T04:46:15.276Z,99.90
2022-07-28T04:48:43.862Z,99.90
2022-07-28T04:51:12.107Z,99.90
2022-07-28T04:53:40.097Z,99.90
2022-07-28T04:56:08.062Z,99.90
2022-07-28T04:58:37.469Z,99.90
2022-07-28T05:01:06.546Z,99.90
2022-07-28T05:03:36.460Z,99.90
2022-07-28T05:06:05.044Z,99.90
2022-07-28T05:08:33.086Z,99.90
2022-07-28T05:11:01.089Z,99.90
2022-07-28T05:13:33.714Z,99.90
2022-07-28T05:16:04.166Z,99.90
2022-07-28T05:18:32.364Z,99.90
2022-07-28T05:21:00.479Z,99.90
2022-07-28T05:23:28.645Z,99.90
2022-07-28T05:25:56.873Z,99.90
2022-07-28T05:28:25.008Z,99.90
2022-07-28T05:30:53.250Z,99.90
2022-07-28T05:33:22.960Z,99.90
2022-07-28T05:35:54.701Z,99.90
2022-07-28T05:38:22.912Z,99.90
2022-07-28T05:40:51.112Z,99.90
2022-07-28T05:43:19.726Z,99.90
2022-07-28T05:45:48.146Z,99.90
2022-07-28T05:48:18.415Z,99.90
2022-07-28T05:50:49.021Z,99.90
2022-07-28T05:53:17.600Z,99.90
2022-07-28T05:56:00.613Z,99.90
2022-07-28T05:58:31.588Z,99.90
2022-07-28T06:01:01.109Z,99.90
2022-07-28T06:03:30.490Z,99.90
2022-07-28T06:06:15.357Z,99.90
2022-07-28T06:08:46.662Z,99.90
2022-07-28T06:11:22.133Z,99.90
2022-07-28T06:13:51.706Z,99.90
2022-07-28T06:16:21.006Z,99.90
2022-07-28T06:18:49.386Z,99.90
2022-07-28T06:21:18.974Z,99.90
2022-07-28T06:23:47.017Z,99.90
2022-07-28T06:26:15.099Z,99.90
2022-07-28T06:28:43.106Z,99.90
2022-07-28T06:31:11.274Z,99.90
2022-07-28T06:33:39.404Z,99.90
2022-07-28T06:36:07.756Z,99.90
2022-07-28T06:38:37.419Z,99.90
2022-07-28T06:41:05.521Z,99.90
2022-07-28T06:43:36.780Z,99.90
2022-07-28T06:46:07.073Z,99.90
2022-07-28T06:48:37.478Z,99.90
2022-07-28T06:51:06.108Z,99.90
2022-07-28T06:53:34.826Z,99.90
2022-07-28T06:56:05.628Z,99.90
2022-07-28T06:58:34.422Z,99.90
2022-07-28T07:01:07.449Z,99.90
2022-07-28T07:03:36.057Z,99.90
2022-07-28T07:06:04.374Z,99.90
2022-07-28T07:08:32.429Z,99.90
2022-07-28T07:11:00.502Z,99.90
2022-07-28T07:13:30.193Z,99.90
2022-07-28T07:15:58.311Z,99.90
2022-07-28T07:18:26.567Z,99.90
2022-07-28T07:20:54.840Z,99.90
2022-07-28T07:23:22.998Z,99.90
2022-07-28T07:25:51.128Z,99.90
2022-07-28T07:28:19.324Z,99.90
2022-07-28T07:30:49.576Z,99.90
2022-07-28T07:33:17.669Z,99.90
2022-07-28T07:35:46.044Z,99.90
2022-07-28T07:38:14.232Z,99.90
2022-07-28T07:40:42.457Z,99.90
2022-07-28T07:43:10.542Z,99.90
2022-07-28T07:45:38.635Z,99.90
2022-07-28T07:48:08.491Z,99.70
2022-07-28T07:50:37.048Z,99.90
2022-07-28T07:53:05.681Z,99.30
2022-07-28T07:55:34.505Z,99.70
2022-07-28T07:58:06.352Z,99.90
2022-07-28T08:00:34.697Z,98.70
2022-07-28T08:03:02.842Z,97.10
2022-07-28T08:05:34.994Z,97.20
2022-07-28T08:08:04.821Z,97.30
2022-07-28T08:10:33.058Z,97.50
2022-07-28T08:13:01.082Z,98.00
2022-07-28T08:15:29.232Z,94.80
2022-07-28T08:17:57.358Z,95.00
2022-07-28T08:20:25.517Z,94.00
2022-07-28T08:22:56.055Z,95.50
2022-07-28T08:25:25.114Z,96.10
2022-07-28T08:27:53.294Z,96.10
2022-07-28T08:30:23.011Z,94.10
2022-07-28T08:32:56.409Z,93.60
2022-07-28T08:35:34.562Z,93.70
2022-07-28T08:38:05.326Z,91.50
2022-07-28T08:40:35.769Z,91.40
2022-07-28T08:43:10.394Z,91.10
2022-07-28T08:45:40.956Z,91.10
2022-07-28T08:48:12.848Z,83.10
2022-07-28T08:50:43.276Z,83.30
2022-07-28T08:53:15.040Z,80.40
2022-07-28T08:55:43.685Z,80.30
2022-07-28T08:58:14.043Z,80.90
2022-07-28T09:00:43.075Z,76.50
2022-07-28T09:03:13.067Z,74.70
2022-07-28T09:05:42.967Z,73.30
2022-07-28T09:08:12.919Z,70.90
2022-07-28T09:10:40.940Z,66.10
2022-07-28T09:13:09.068Z,72.40
2022-07-28T09:15:41.852Z,68.10
2022-07-28T09:18:09.974Z,65.00
2022-07-28T09:20:38.665Z,69.70
2022-07-28T09:23:41.680Z,65.60
2022-07-28T09:26:11.231Z,68.30
2022-07-28T09:28:49.244Z,60.80
2022-07-28T09:31:17.998Z,59.90
2022-07-28T09:34:01.430Z,59.70
2022-07-28T09:36:30.255Z,58.40
2022-07-28T09:38:59.194Z,57.60
2022-07-28T09:41:28.848Z,59.80
2022-07-28T09:43:56.920Z,59.00
2022-07-28T09:46:26.864Z,57.80
2022-07-28T09:49:00.388Z,57.70
2022-07-28T09:51:30.715Z,55.80
2022-07-28T09:54:08.676Z,54.60
2022-07-28T09:56:38.811Z,59.70
2022-07-28T09:59:08.490Z,56.60
2022-07-28T10:01:51.891Z,54.20
2022-07-28T10:04:31.681Z,52.10
2022-07-28T10:07:05.563Z,53.20
2022-07-28T10:09:34.036Z,50.10
2022-07-28T10:12:18.788Z,49.00
2022-07-28T10:14:47.461Z,51.20
2022-07-28T10:17:30.193Z,47.00
2022-07-28T10:19:59.773Z,49.50
2022-07-28T10:22:32.086Z,50.40
2022-07-28T10:25:03.388Z,49.60
2022-07-28T10:27:34.057Z,45.40
2022-07-28T10:30:04.613Z,47.90
2022-07-28T10:32:38.356Z,49.00
2022-07-28T10:35:09.826Z,45.60
2022-07-28T10:37:44.083Z,46.10
2022-07-28T10:40:13.813Z,46.10
2022-07-28T10:42:43.710Z,44.00
2022-07-28T10:45:12.308Z,45.20
2022-07-28T10:47:40.990Z,45.10
2022-07-28T10:50:10.148Z,47.40
2022-07-28T10:52:49.835Z,41.90
2022-07-28T10:55:32.035Z,47.50
2022-07-28T10:58:13.164Z,45.10
2022-07-28T11:00:59.945Z,48.20
2022-07-28T11:03:42.892Z,47.20
2022-07-28T11:06:31.098Z,46.70
2022-07-28T11:09:00.588Z,49.20
2022-07-28T11:11:43.972Z,44.80
2022-07-28T11:14:38.988Z,47.00
2022-07-28T11:17:24.514Z,45.80
2022-07-28T11:20:27.201Z,44.40
2022-07-28T11:22:51.760Z,44.30
2022-07-28T11:25:22.178Z,43.30
2022-07-28T11:28:06.853Z,44.50
2022-07-28T11:30:55.699Z,44.80
2022-07-28T11:33:25.046Z,44.20
2022-07-28T11:36:00.610Z,42.00
2022-07-28T11:38:30.647Z,37.70
2022-07-28T11:40:58.784Z,40.50
2022-07-28T11:43:36.876Z,42.80
2022-07-28T11:46:38.476Z,44.20
2022-07-28T11:49:27.528Z,47.70
2022-07-28T11:52:19.515Z,43.80
2022-07-28T11:54:54.247Z,47.90
2022-07-28T11:57:26.053Z,49.70
2022-07-28T12:00:00.305Z,48.00
2022-07-28T12:02:34.603Z,46.10
2022-07-28T12:05:12.770Z,47.40
2022-07-28T12:07:43.751Z,46.40
2022-07-28T12:13:28.139Z,44.20
2022-07-28T12:15:56.316Z,43.70
2022-07-28T12:18:26.019Z,40.20
2022-07-28T12:20:55.475Z,39.60
2022-07-28T12:23:38.673Z,37.90
2022-07-28T12:26:13.887Z,40.90
2022-07-28T12:28:51.585Z,43.80
2022-07-28T12:31:19.746Z,43.70
2022-07-28T12:33:53.662Z,44.00
2022-07-28T12:36:24.253Z,44.10
2022-07-28T12:38:53.269Z,42.80
2022-07-28T12:41:21.751Z,44.60
2022-07-28T12:43:54.399Z,43.90
2022-07-28T12:46:25.123Z,45.90
2022-07-28T12:48:59.648Z,44.30
2022-07-28T12:51:32.112Z,46.10
2022-07-28T12:54:00.616Z,43.50
2022-07-28T12:56:28.655Z,44.10
2022-07-28T12:59:08.085Z,44.50
2022-07-28T13:01:46.728Z,46.70
2022-07-28T13:04:17.464Z,45.10
2022-07-28T13:06:56.920Z,45.30
2022-07-28T13:09:32.880Z,46.20
2022-07-28T13:12:04.038Z,44.50
2022-07-28T13:14:41.628Z,41.10
2022-07-28T13:17:09.765Z,43.50
2022-07-28T13:19:39.780Z,40.40
2022-07-28T13:22:09.352Z,40.50
2022-07-28T13:24:37.609Z,40.00
2022-07-28T13:27:07.455Z,41.80
2022-07-28T13:29:36.611Z,39.60
2022-07-28T13:32:04.846Z,38.80
2022-07-28T13:34:33.003Z,39.40
2022-07-28T13:37:02.572Z,38.50
2022-07-28T13:39:30.670Z,39.40
2022-07-28T13:41:59.397Z,38.10
2022-07-28T13:44:28.330Z,36.30
2022-07-28T13:47:00.247Z,34.20
2022-07-28T13:49:29.325Z,37.30
2022-07-28T13:51:57.418Z,35.50
2022-07-28T13:54:27.367Z,39.60
2022-07-28T13:56:55.884Z,39.00
2022-07-28T13:59:26.305Z,39.60
2022-07-28T14:01:56.025Z,38.50
2022-07-28T14:04:24.877Z,40.30
2022-07-28T14:06:55.226Z,39.50
2022-07-28T14:09:23.504Z,41.10
2022-07-28T14:11:53.765Z,40.80
2022-07-28T14:14:24.679Z,42.90
2022-07-28T14:16:54.324Z,42.60
2022-07-28T14:19:38.218Z,47.50
2022-07-28T14:22:12.529Z,44.40
2022-07-28T14:24:41.656Z,42.00
2022-07-28T14:27:11.401Z,43.90
2022-07-28T14:29:39.817Z,44.30
2022-07-28T14:32:08.390Z,42.80
2022-07-28T14:34:36.496Z,46.40
2022-07-28T14:37:08.653Z,48.30
2022-07-28T14:39:38.346Z,46.30
2022-07-28T14:42:06.917Z,45.80
2022-07-28T14:44:36.353Z,46.50
2022-07-28T14:47:04.630Z,44.90
2022-07-28T14:49:32.810Z,48.00
2022-07-28T14:52:00.875Z,47.90
2022-07-28T14:54:29.212Z,47.90
2022-07-28T14:57:02.449Z,47.90
2022-07-28T14:59:30.604Z,48.70
2022-07-28T15:02:00.062Z,47.60
2022-07-28T15:04:28.516Z,45.30
2022-07-28T15:06:56.609Z,47.40
2022-07-28T15:09:24.675Z,47.20
2022-07-28T15:11:52.990Z,50.20
2022-07-28T15:14:21.766Z,44.40
2022-07-28T15:16:49.934Z,46.80
2022-07-28T15:19:19.566Z,45.80
2022-07-28T15:21:48.052Z,44.60
2022-07-28T15:24:17.145Z,44.70
2022-07-28T15:26:45.566Z,44.70
2022-07-28T15:29:13.786Z,44.80
2022-07-28T15:31:45.442Z,46.00
2022-07-28T15:34:15.549Z,45.80
2022-07-28T15:36:45.358Z,47.10
2022-07-28T15:39:14.928Z,45.90
2022-07-28T15:41:44.013Z,46.60
2022-07-28T15:44:13.677Z,47.70
2022-07-28T15:46:42.541Z,45.80
2022-07-28T15:49:12.530Z,45.30
2022-07-28T15:51:41.547Z,47.00
2022-07-28T15:54:11.242Z,46.20
2022-07-28T15:56:40.733Z,46.90
2022-07-28T15:59:09.638Z,46.30
2022-07-28T16:01:40.855Z,49.90
2022-07-28T16:04:13.638Z,52.00
2022-07-28T16:06:59.035Z,54.20
2022-07-28T16:09:45.892Z,57.30
2022-07-28T16:12:15.313Z,55.70
2022-07-28T16:14:44.493Z,50.90
2022-07-28T16:17:13.153Z,50.10
2022-07-28T16:19:50.222Z,50.50
2022-07-28T16:22:19.498Z,50.90
2022-07-28T16:24:50.749Z,51.10
2022-07-28T16:27:19.035Z,48.30
2022-07-28T16:29:49.364Z,49.30
2022-07-28T16:32:17.677Z,48.10
2022-07-28T16:34:45.907Z,46.10
2022-07-28T16:37:19.057Z,47.90
2022-07-28T16:39:49.106Z,48.70
2022-07-28T16:42:17.224Z,50.70
2022-07-28T16:44:45.308Z,50.90
2022-07-28T16:47:13.391Z,53.60
2022-07-28T16:49:45.343Z,54.70
2022-07-28T16:52:13.942Z,57.10
2022-07-28T16:54:42.153Z,57.20
2022-07-28T16:57:11.970Z,55.50
2022-07-28T16:59:47.933Z,56.30
2022-07-28T17:02:17.514Z,58.60
2022-07-28T17:04:45.864Z,57.80
2022-07-28T17:07:14.083Z,56.70
2022-07-28T17:09:42.210Z,60.10
2022-07-28T17:12:12.080Z,60.60
2022-07-28T17:14:40.274Z,62.00
2022-07-28T17:17:09.086Z,63.40
2022-07-28T17:19:39.831Z,62.70
2022-07-28T17:22:12.072Z,62.00
2022-07-28T17:24:40.205Z,61.90
2022-07-28T17:29:58.131Z,63.20
2022-07-28T17:32:26.168Z,62.30
2022-07-28T17:34:55.529Z,59.30
2022-07-28T17:37:23.593Z,60.10
2022-07-28T17:39:51.727Z,60.70
2022-07-28T17:42:19.830Z,61.90
2022-07-28T17:44:48.698Z,61.50
2022-07-28T17:47:23.940Z,63.40
2022-07-28T17:50:07.129Z,62.60
2022-07-28T17:52:35.175Z,61.10
2022-07-28T17:55:23.368Z,62.50
2022-07-28T17:57:52.845Z,62.60
2022-07-28T18:00:22.216Z,64.60
2022-07-28T18:02:51.714Z,64.90
2022-07-28T18:05:20.494Z,65.30
2022-07-28T18:07:51.278Z,64.30
2022-07-28T18:10:25.209Z,63.90
2022-07-28T18:12:55.459Z,62.40
2022-07-28T18:15:23.628Z,63.20
2022-07-28T18:17:55.437Z,63.40
2022-07-28T18:20:24.887Z,61.70
2022-07-28T18:22:53.229Z,61.90
2022-07-28T18:25:21.537Z,60.80
2022-07-28T18:27:49.569Z,62.70
2022-07-28T18:30:18.266Z,64.60
2022-07-28T18:32:46.869Z,63.70
2022-07-28T18:35:17.136Z,62.00
2022-07-28T18:37:46.026Z,61.50
2022-07-28T18:40:16.363Z,62.30
2022-07-28T18:42:44.512Z,63.50
2022-07-28T18:45:13.357Z,64.40
2022-07-28T18:47:47.967Z,63.90
2022-07-28T18:50:27.901Z,64.30
2022-07-28T18:53:00.209Z,65.00
2022-07-28T18:55:28.479Z,65.50
2022-07-28T18:57:56.540Z,64.90
2022-07-28T19:00:24.591Z,64.80
2022-07-28T19:02:52.823Z,64.80
2022-07-28T19:05:22.716Z,64.10
2022-07-28T19:07:51.161Z,63.30
2022-07-28T19:10:19.235Z,63.10
2022-07-28T19:12:48.184Z,64.20
2022-07-28T19:15:16.358Z,63.70
2022-07-28T19:17:44.464Z,63.60
2022-07-28T19:20:13.089Z,64.50
2022-07-28T19:22:42.725Z,64.60
2022-07-28T19:25:11.495Z,63.90
2022-07-28T19:27:40.011Z,65.10
2022-07-28T19:30:09.899Z,66.00
2022-07-28T19:32:41.677Z,65.80
2022-07-28T19:35:10.777Z,65.90
2022-07-28T19:37:39.456Z,66.50
2022-07-28T19:40:10.636Z,66.80
2022-07-28T19:42:38.822Z,66.70
2022-07-28T19:45:08.390Z,67.40
2022-07-28T19:47:36.781Z,67.60
2022-07-28T19:50:06.303Z,67.10
2022-07-28T19:52:34.812Z,68.10
2022-07-28T19:55:06.519Z,68.30
2022-07-28T19:57:35.968Z,68.80
2022-07-28T20:00:04.995Z,68.80
2022-07-28T20:02:33.235Z,69.20
2022-07-28T20:05:01.435Z,69.20
2022-07-28T20:07:29.565Z,69.10
2022-07-28T20:09:57.673Z,69.60
2022-07-28T20:12:25.732Z,70.00
2022-07-28T20:14:55.267Z,69.80
2022-07-28T20:17:37.322Z,70.40
2022-07-28T20:20:07.597Z,71.10
2022-07-28T20:22:35.681Z,71.30
2022-07-28T20:25:04.063Z,71.20
2022-07-28T20:27:32.179Z,71.20
2022-07-28T20:30:11.422Z,71.50
2022-07-28T20:32:40.579Z,71.40
2022-07-28T20:35:11.246Z,71.70
2022-07-28T20:37:39.736Z,73.30
2022-07-28T20:40:09.136Z,75.20
2022-07-28T20:42:37.974Z,75.70
2022-07-28T20:45:07.596Z,76.90
2022-07-28T20:47:37.203Z,76.60
2022-07-28T20:50:06.133Z,77.00
2022-07-28T20:52:34.933Z,76.30
2022-07-28T20:55:04.451Z,76.30
2022-07-28T20:57:32.530Z,76.30
2022-07-28T21:00:00.671Z,75.60
2022-07-28T21:02:28.833Z,75.20
2022-07-28T21:04:58.347Z,74.60
2022-07-28T21:08:00.153Z,75.10
2022-07-28T21:10:14.724Z,74.60
2022-07-28T21:12:42.752Z,74.40
2022-07-28T21:15:11.481Z,74.20
2022-07-28T21:17:39.550Z,74.70
2022-07-28T21:20:10.190Z,74.10
2022-07-28T21:22:38.205Z,73.90
2022-07-28T21:25:07.363Z,73.30
2022-07-28T21:27:49.288Z,71.50
2022-07-28T21:30:17.360Z,72.40
2022-07-28T21:32:45.420Z,72.10
2022-07-28T21:35:14.976Z,71.30
2022-07-28T21:37:43.009Z,69.40
2022-07-28T21:40:11.841Z,69.70
2022-07-28T21:42:40.042Z,70.00
2022-07-28T21:45:11.253Z,69.40
2022-07-28T21:47:39.606Z,69.70
2022-07-28T21:50:08.804Z,68.00
2022-07-28T21:52:39.387Z,68.30
2022-07-28T21:55:10.064Z,68.70
2022-07-28T21:57:38.350Z,68.80
2022-07-28T22:00:09.485Z,67.80
2022-07-28T22:02:37.727Z,68.70
2022-07-28T22:05:09.797Z,69.20
2022-07-28T22:07:39.315Z,69.10
2022-07-28T22:10:09.080Z,69.60
2022-07-28T22:12:37.393Z,69.40
2022-07-28T22:15:06.177Z,69.80
2022-07-28T22:17:34.269Z,69.60
2022-07-28T22:20:02.305Z,70.00
2022-07-28T22:22:30.324Z,71.10
2022-07-28T22:24:59.745Z,70.70
2022-07-28T22:27:27.901Z,70.60
2022-07-28T22:29:56.017Z,70.60
2022-07-28T22:32:26.790Z,70.20
2022-07-28T22:34:57.579Z,70.60
2022-07-28T22:37:25.659Z,71.50
2022-07-28T22:39:53.671Z,70.90
2022-07-28T22:42:23.272Z,71.00
2022-07-28T22:44:51.310Z,73.10
2022-07-28T22:47:19.409Z,74.80
2022-07-28T22:49:47.659Z,74.20
2022-07-28T22:52:15.756Z,76.10
2022-07-28T22:54:44.000Z,76.80
2022-07-28T22:57:12.036Z,75.90
2022-07-28T22:59:42.082Z,75.70
2022-07-28T23:02:15.353Z,75.90
2022-07-28T23:04:46.935Z,75.50
2022-07-28T23:07:17.761Z,75.90
2022-07-28T23:09:46.428Z,75.40
2022-07-28T23:12:14.527Z,77.60
2022-07-28T23:14:43.934Z,76.90
2022-07-28T23:17:12.013Z,76.20
2022-07-28T23:19:40.028Z,76.50
2022-07-28T23:22:08.112Z,76.90
2022-07-28T23:24:36.188Z,77.70
2022-07-28T23:27:04.884Z,78.50
2022-07-28T23:29:32.996Z,78.50
2022-07-28T23:32:02.486Z,78.50
2022-07-28T23:34:30.612Z,79.20
2022-07-28T23:36:58.635Z,79.00
2022-07-28T23:39:26.641Z,80.10
2022-07-28T23:41:54.720Z,80.90
2022-07-28T23:44:22.730Z,82.30
2022-07-28T23:46:50.904Z,81.90
2022-07-28T23:49:20.476Z,80.90
2022-07-28T23:51:49.024Z,84.00
2022-07-28T23:54:17.789Z,84.70
2022-07-28T23:56:46.446Z,86.30
2022-07-28T23:59:14.943Z,86.10
